createdAt,value
2018-10-01T00:02:21.822Z,7.20
2018-10-01T00:04:50.209Z,7.20
2018-10-01T00:07:18.342Z,7.10
2018-10-01T00:09:46.558Z,7.10
2018-10-01T00:12:14.801Z,7.10
2018-10-01T00:14:42.976Z,7.10
2018-10-01T00:17:11.075Z,7.20
2018-10-01T00:19:44.860Z,7.40
2018-10-01T00:22:18.649Z,7.40
2018-10-01T00:24:46.779Z,7.40
2018-10-01T00:27:15.026Z,7.50
2018-10-01T00:29:44.017Z,7.60
2018-10-01T00:32:12.141Z,7.70
2018-10-01T00:34:40.293Z,7.60
2018-10-01T00:37:08.344Z,7.70
2018-10-01T00:39:36.521Z,7.80
2018-10-01T00:42:04.656Z,7.80
2018-10-01T00:44:32.774Z,7.70
2018-10-01T00:47:00.984Z,7.70
2018-10-01T00:49:29.045Z,7.70
2018-10-01T00:51:57.145Z,7.60
2018-10-01T00:54:25.383Z,7.70
2018-10-01T00:56:54.207Z,7.70
2018-10-01T00:59:22.530Z,7.70
2018-10-01T01:01:50.667Z,7.60
2018-10-01T01:04:18.818Z,7.50
2018-10-01T01:06:47.361Z,7.40
2018-10-01T01:09:15.601Z,7.30
2018-10-01T01:11:43.811Z,7.20
2018-10-01T01:14:12.031Z,7.10
2018-10-01T01:16:40.252Z,7.00
2018-10-01T01:19:08.576Z,6.90
2018-10-01T01:21:36.750Z,6.90
2018-10-01T01:24:05.090Z,6.80
2018-10-01T01:26:33.848Z,6.80
2018-10-01T01:29:02.059Z,6.80
2018-10-01T01:31:30.310Z,6.80
2018-10-01T01:33:58.378Z,6.80
2018-10-01T01:36:26.719Z,6.70
2018-10-01T01:38:55.119Z,6.80
2018-10-01T01:41:23.260Z,6.70
2018-10-01T01:43:51.304Z,6.60
2018-10-01T01:46:19.544Z,6.60
2018-10-01T01:48:47.785Z,6.70
2018-10-01T01:51:15.956Z,6.70
2018-10-01T01:53:44.112Z,6.70
2018-10-01T01:56:12.099Z,6.60
2018-10-01T01:58:40.872Z,6.60
2018-10-01T02:01:09.027Z,6.60
2018-10-01T02:03:37.159Z,6.60
2018-10-01T02:06:05.416Z,6.60
2018-10-01T02:08:33.656Z,6.60
2018-10-01T02:11:01.718Z,6.70
2018-10-01T02:13:29.781Z,6.70
2018-10-01T02:15:57.955Z,6.70
2018-10-01T02:18:26.152Z,6.70
2018-10-01T02:20:54.298Z,6.70
2018-10-01T02:23:23.045Z,6.60
2018-10-01T02:25:51.907Z,6.10
2018-10-01T02:28:20.080Z,6.60
2018-10-01T02:30:48.366Z,6.60
2018-10-01T02:33:16.537Z,6.50
2018-10-01T02:35:44.605Z,6.40
2018-10-01T02:38:12.684Z,6.30
2018-10-01T02:40:40.922Z,6.20
2018-10-01T02:43:09.213Z,6.20
2018-10-01T02:45:37.444Z,6.20
2018-10-01T02:48:05.882Z,6.30
2018-10-01T02:50:34.153Z,6.40
2018-10-01T02:53:07.874Z,6.40
2018-10-01T02:55:35.928Z,6.40
2018-10-01T02:58:04.201Z,6.50
2018-10-01T03:00:32.310Z,6.60
2018-10-01T03:03:00.440Z,6.70
2018-10-01T03:05:28.663Z,6.60
2018-10-01T03:07:56.943Z,6.60
2018-10-01T03:10:25.729Z,6.60
2018-10-01T03:12:53.916Z,6.60
2018-10-01T03:15:22.044Z,6.70
2018-10-01T03:17:50.140Z,6.70
2018-10-01T03:20:19.001Z,6.70
2018-10-01T03:22:47.850Z,6.80
2018-10-01T03:25:20.917Z,6.90
2018-10-01T03:27:49.173Z,7.00
2018-10-01T03:30:17.439Z,6.90
2018-10-01T03:32:45.691Z,6.80
2018-10-01T03:35:13.908Z,6.80
2018-10-01T03:37:42.091Z,6.90
2018-10-01T03:40:10.371Z,6.90
2018-10-01T03:42:38.495Z,6.90
2018-10-01T03:45:06.710Z,6.90
2018-10-01T03:47:34.773Z,7.00
2018-10-01T03:50:02.946Z,7.00
2018-10-01T03:52:31.101Z,7.10
2018-10-01T03:54:59.194Z,7.10
2018-10-01T03:57:27.604Z,7.20
2018-10-01T03:59:55.655Z,7.10
2018-10-01T04:02:24.050Z,7.10
2018-10-01T04:04:52.309Z,7.10
2018-10-01T04:07:20.482Z,7.10
2018-10-01T04:09:48.644Z,7.00
2018-10-01T04:12:16.738Z,6.90
2018-10-01T04:14:44.890Z,6.90
2018-10-01T04:17:13.066Z,6.90
2018-10-01T04:19:41.294Z,6.80
2018-10-01T04:22:09.414Z,6.90
2018-10-01T04:24:37.577Z,6.80
2018-10-01T04:27:06.608Z,6.80
2018-10-01T04:29:34.801Z,6.80
2018-10-01T04:32:03.069Z,6.80
2018-10-01T04:34:31.403Z,6.80
2018-10-01T04:36:59.598Z,6.80
2018-10-01T04:39:27.668Z,6.80
2018-10-01T04:41:55.720Z,6.80
2018-10-01T04:44:23.796Z,6.80
2018-10-01T04:46:52.130Z,6.90
2018-10-01T04:49:20.202Z,6.90
2018-10-01T04:51:48.381Z,6.90
2018-10-01T04:54:16.512Z,6.80
2018-10-01T04:56:44.635Z,6.80
2018-10-01T04:59:12.665Z,6.90
2018-10-01T05:01:41.009Z,6.90
2018-10-01T05:04:10.007Z,7.00
2018-10-01T05:06:38.326Z,7.10
2018-10-01T05:09:08.622Z,7.10
2018-10-01T05:11:36.824Z,7.10
2018-10-01T05:14:05.083Z,7.20
2018-10-01T05:16:33.334Z,7.10
2018-10-01T05:19:01.498Z,7.10
2018-10-01T05:21:29.661Z,7.20
2018-10-01T05:23:57.785Z,7.10
2018-10-01T05:26:25.987Z,7.20
2018-10-01T05:28:54.220Z,7.20
2018-10-01T05:31:22.457Z,7.20
2018-10-01T05:33:50.494Z,7.30
2018-10-01T05:36:18.705Z,7.30
2018-10-01T05:38:46.985Z,6.80
2018-10-01T05:41:15.180Z,7.40
2018-10-01T05:43:43.212Z,7.40
2018-10-01T05:46:11.364Z,7.50
2018-10-01T05:48:39.564Z,7.60
2018-10-01T05:51:07.628Z,7.70
2018-10-01T05:53:35.681Z,7.90
2018-10-01T05:56:27.200Z,8.00
2018-10-01T05:58:55.420Z,8.10
2018-10-01T06:01:23.616Z,8.40
2018-10-01T06:03:51.727Z,8.40
2018-10-01T06:06:19.893Z,8.50
2018-10-01T06:08:48.282Z,8.50
2018-10-01T06:11:16.385Z,8.60
2018-10-01T06:13:44.573Z,8.10
2018-10-01T06:16:12.685Z,8.70
2018-10-01T06:18:40.856Z,8.80
2018-10-01T06:21:09.290Z,8.90
2018-10-01T06:23:37.503Z,8.90
2018-10-01T06:26:05.583Z,8.90
2018-10-01T06:28:33.693Z,8.90
2018-10-01T06:31:02.013Z,9.00
2018-10-01T06:33:30.266Z,8.90
2018-10-01T06:35:58.347Z,9.10
2018-10-01T06:38:26.601Z,9.20
2018-10-01T06:40:54.707Z,9.30
2018-10-01T06:43:22.813Z,9.40
2018-10-01T06:45:50.954Z,9.50
2018-10-01T06:48:19.170Z,9.50
2018-10-01T06:50:47.289Z,9.70
2018-10-01T06:53:15.469Z,9.80
2018-10-01T06:55:43.673Z,9.80
2018-10-01T06:58:11.820Z,9.90
2018-10-01T07:00:39.900Z,10.10
2018-10-01T07:03:08.040Z,10.10
2018-10-01T07:05:36.395Z,10.20
2018-10-01T07:08:04.465Z,10.20
2018-10-01T07:10:33.298Z,10.10
2018-10-01T07:13:02.093Z,9.70
2018-10-01T07:15:30.268Z,10.00
2018-10-01T07:17:58.476Z,10.10
2018-10-01T07:20:26.628Z,10.20
2018-10-01T07:22:54.864Z,10.30
2018-10-01T07:25:23.068Z,10.30
2018-10-01T07:27:51.244Z,10.40
2018-10-01T07:30:19.474Z,10.40
2018-10-01T07:32:47.517Z,10.40
2018-10-01T07:35:15.610Z,10.50
2018-10-01T07:37:43.740Z,10.50
2018-10-01T07:40:11.849Z,10.60
2018-10-01T07:42:39.867Z,10.60
2018-10-01T07:45:08.783Z,10.70
2018-10-01T07:47:36.777Z,10.80
2018-10-01T07:50:06.032Z,10.90
2018-10-01T07:52:34.797Z,11.10
2018-10-01T07:55:03.426Z,11.20
2018-10-01T07:57:31.638Z,11.20
2018-10-01T07:59:59.783Z,11.20
2018-10-01T08:02:27.788Z,11.40
2018-10-01T08:04:56.082Z,11.50
2018-10-01T08:07:24.200Z,11.80
2018-10-01T08:09:52.561Z,12.10
2018-10-01T08:12:20.756Z,12.20
2018-10-01T08:14:49.179Z,12.30
2018-10-01T08:17:17.378Z,12.30
2018-10-01T08:19:45.559Z,12.30
2018-10-01T08:22:13.761Z,12.30
2018-10-01T08:24:42.320Z,12.40
2018-10-01T08:27:11.311Z,12.50
2018-10-01T08:29:39.621Z,12.60
2018-10-01T08:32:07.866Z,12.80
2018-10-01T08:34:36.349Z,12.80
2018-10-01T08:37:04.482Z,13.10
2018-10-01T08:39:32.550Z,13.40
2018-10-01T08:42:00.665Z,13.70
2018-10-01T08:44:28.864Z,13.70
2018-10-01T08:46:56.900Z,14.00
2018-10-01T08:49:34.139Z,14.30
2018-10-01T08:54:10.548Z,14.30
2018-10-01T08:56:38.856Z,14.40
2018-10-01T08:59:06.951Z,14.60
2018-10-01T09:01:35.129Z,14.60
2018-10-01T09:04:03.244Z,14.80
2018-10-01T09:06:31.525Z,15.00
2018-10-01T09:08:59.677Z,15.20
2018-10-01T09:11:27.862Z,15.60
2018-10-01T09:13:56.106Z,15.70
2018-10-01T09:16:24.292Z,15.80
2018-10-01T09:18:52.495Z,16.00
2018-10-01T09:21:20.769Z,15.30
2018-10-01T09:23:48.875Z,15.40
2018-10-01T09:26:17.082Z,15.50
2018-10-01T09:28:45.104Z,15.80
2018-10-01T09:31:13.295Z,16.00
2018-10-01T09:33:41.557Z,16.00
2018-10-01T09:36:09.672Z,15.90
2018-10-01T09:38:37.860Z,15.50
2018-10-01T09:41:06.039Z,15.40
2018-10-01T09:43:34.275Z,15.30
2018-10-01T09:46:02.404Z,15.20
2018-10-01T09:48:30.633Z,15.10
2018-10-01T09:50:58.896Z,14.90
2018-10-01T09:53:27.040Z,14.90
2018-10-01T09:55:55.183Z,14.90
2018-10-01T09:58:23.331Z,14.70
2018-10-01T10:00:57.048Z,14.80
2018-10-01T10:03:25.272Z,14.90
2018-10-01T10:05:53.365Z,15.50
2018-10-01T10:08:21.537Z,15.30
2018-10-01T10:10:50.064Z,15.80
2018-10-01T10:13:18.211Z,15.60
2018-10-01T10:15:46.353Z,15.60
2018-10-01T10:18:14.509Z,15.50
2018-10-01T10:20:43.169Z,15.80
2018-10-01T10:23:11.249Z,16.10
2018-10-01T10:25:39.481Z,16.10
2018-10-01T10:28:07.709Z,16.60
2018-10-01T10:30:35.901Z,16.80
2018-10-01T10:33:04.112Z,17.50
2018-10-01T10:35:32.589Z,18.60
2018-10-01T10:38:00.769Z,19.40
2018-10-01T10:40:29.129Z,20.10
2018-10-01T10:42:57.963Z,20.90
2018-10-01T10:45:31.088Z,20.90
2018-10-01T10:47:59.177Z,20.80
2018-10-01T10:50:27.368Z,21.30
2018-10-01T10:52:55.417Z,20.50
2018-10-01T10:55:23.622Z,19.90
2018-10-01T10:57:51.684Z,19.90
2018-10-01T11:00:19.856Z,20.80
2018-10-01T11:02:48.022Z,21.70
2018-10-01T11:05:16.084Z,21.90
2018-10-01T11:07:45.187Z,22.10
2018-10-01T11:10:13.310Z,23.00
2018-10-01T11:12:42.431Z,23.00
2018-10-01T11:15:10.926Z,23.50
2018-10-01T11:17:38.995Z,23.60
2018-10-01T11:20:07.874Z,21.80
2018-10-01T11:22:36.020Z,19.90
2018-10-01T11:25:18.014Z,20.20
2018-10-01T11:27:46.340Z,21.20
2018-10-01T11:30:14.929Z,22.20
2018-10-01T11:32:43.031Z,21.40
2018-10-01T11:35:11.347Z,19.90
2018-10-01T11:37:39.483Z,19.10
2018-10-01T11:40:07.736Z,18.40
2018-10-01T11:42:35.885Z,18.80
2018-10-01T11:45:04.332Z,19.60
2018-10-01T11:47:32.534Z,21.40
2018-10-01T11:50:00.665Z,22.30
2018-10-01T11:52:28.924Z,21.50
2018-10-01T11:54:57.096Z,22.00
2018-10-01T11:57:25.532Z,21.20
2018-10-01T11:59:53.570Z,21.00
2018-10-01T12:02:21.670Z,19.90
2018-10-01T12:04:49.844Z,19.30
2018-10-01T12:07:17.986Z,18.70
2018-10-01T12:09:46.220Z,18.60
2018-10-01T12:12:14.224Z,20.00
2018-10-01T12:14:42.499Z,21.60
2018-10-01T12:17:10.725Z,20.70
2018-10-01T12:19:39.802Z,19.90
2018-10-01T12:22:08.199Z,19.50
2018-10-01T12:24:36.282Z,19.00
2018-10-01T12:27:04.501Z,18.70
2018-10-01T12:29:32.664Z,18.10
2018-10-01T12:32:00.730Z,19.00
2018-10-01T12:34:28.828Z,20.10
2018-10-01T12:36:56.885Z,20.10
2018-10-01T12:39:25.040Z,19.50
2018-10-01T12:41:53.201Z,19.70
2018-10-01T12:44:21.374Z,19.20
2018-10-01T12:46:49.554Z,19.00
2018-10-01T12:49:17.608Z,19.20
2018-10-01T12:51:45.938Z,18.80
2018-10-01T12:54:14.055Z,18.80
2018-10-01T12:56:42.278Z,19.30
2018-10-01T12:59:10.349Z,20.10
2018-10-01T13:01:38.446Z,20.10
2018-10-01T13:04:06.648Z,20.00
2018-10-01T13:06:34.915Z,20.40
2018-10-01T13:09:03.610Z,21.30
2018-10-01T13:11:31.766Z,21.80
2018-10-01T13:13:59.871Z,22.60
2018-10-01T13:16:27.995Z,22.90
2018-10-01T13:18:56.157Z,23.40
2018-10-01T13:21:24.366Z,22.70
2018-10-01T13:23:52.620Z,22.20
2018-10-01T13:26:20.928Z,22.40
2018-10-01T13:28:48.992Z,22.70
2018-10-01T13:31:17.124Z,23.20
2018-10-01T13:33:45.205Z,23.20
2018-10-01T13:36:13.382Z,23.00
2018-10-01T13:38:41.537Z,22.40
2018-10-01T13:41:09.779Z,22.50
2018-10-01T13:43:37.885Z,22.60
2018-10-01T13:46:05.959Z,23.40
2018-10-01T13:48:34.122Z,23.70
2018-10-01T13:51:02.302Z,23.10
2018-10-01T13:53:30.452Z,22.90
2018-10-01T13:55:58.572Z,23.20
2018-10-01T13:58:26.893Z,22.70
2018-10-01T14:00:55.085Z,21.60
2018-10-01T14:03:23.254Z,20.90
2018-10-01T14:05:51.465Z,20.00
2018-10-01T14:08:19.616Z,19.30
2018-10-01T14:10:47.833Z,18.50
2018-10-01T14:13:15.962Z,18.00
2018-10-01T14:15:44.622Z,16.90
2018-10-01T14:18:12.783Z,16.10
2018-10-01T14:20:41.288Z,15.60
2018-10-01T14:23:09.490Z,15.50
2018-10-01T14:25:37.696Z,15.30
2018-10-01T14:28:05.657Z,15.20
2018-10-01T14:30:33.779Z,15.40
2018-10-01T14:33:01.861Z,15.30
2018-10-01T14:35:30.060Z,15.10
2018-10-01T14:37:58.173Z,15.60
2018-10-01T14:40:26.365Z,15.20
2018-10-01T14:42:54.488Z,15.60
2018-10-01T14:45:22.688Z,16.80
2018-10-01T14:47:50.794Z,17.80
2018-10-01T14:50:18.931Z,18.50
2018-10-01T14:52:47.078Z,18.90
2018-10-01T14:55:15.956Z,19.20
2018-10-01T14:57:44.105Z,19.60
2018-10-01T15:00:12.337Z,19.00
2018-10-01T15:02:40.497Z,19.40
2018-10-01T15:05:08.833Z,19.10
2018-10-01T15:07:36.897Z,19.00
2018-10-01T15:10:05.218Z,18.70
2018-10-01T15:12:33.414Z,18.40
2018-10-01T15:15:01.724Z,18.00
2018-10-01T15:17:29.854Z,17.10
2018-10-01T15:19:58.194Z,16.60
2018-10-01T15:22:26.522Z,15.70
2018-10-01T15:24:54.706Z,15.20
2018-10-01T15:27:22.912Z,14.40
2018-10-01T15:29:51.034Z,14.60
2018-10-01T15:32:19.190Z,14.30
2018-10-01T15:34:47.375Z,14.30
2018-10-01T15:37:15.459Z,14.10
2018-10-01T15:39:43.639Z,13.80
2018-10-01T15:42:11.852Z,13.60
2018-10-01T15:44:39.819Z,13.50
2018-10-01T15:47:07.832Z,13.50
2018-10-01T15:49:36.074Z,13.40
2018-10-01T15:52:04.345Z,13.20
2018-10-01T15:54:32.598Z,13.20
2018-10-01T15:57:00.807Z,13.10
2018-10-01T15:59:28.924Z,13.10
2018-10-01T16:01:57.086Z,13.00
2018-10-01T16:04:25.312Z,12.90
2018-10-01T16:06:53.532Z,12.80
2018-10-01T16:09:21.782Z,12.70
2018-10-01T16:11:49.885Z,12.60
2018-10-01T16:14:18.024Z,12.60
2018-10-01T16:16:46.760Z,12.70
2018-10-01T16:19:15.066Z,12.80
2018-10-01T16:21:43.269Z,12.60
2018-10-01T16:24:11.322Z,12.50
2018-10-01T16:26:39.575Z,12.30
2018-10-01T16:29:07.866Z,12.10
2018-10-01T16:31:36.185Z,12.00
2018-10-01T16:34:04.352Z,11.50
2018-10-01T16:36:32.644Z,11.20
2018-10-01T16:39:00.894Z,11.00
2018-10-01T16:41:29.123Z,10.90
2018-10-01T16:43:57.383Z,10.80
2018-10-01T16:46:25.543Z,10.80
2018-10-01T16:48:53.735Z,10.80
2018-10-01T16:51:21.942Z,10.80
2018-10-01T16:53:52.927Z,10.70
2018-10-01T16:56:21.226Z,10.60
2018-10-01T16:58:49.392Z,10.70
2018-10-01T17:01:17.497Z,10.50
2018-10-01T17:03:45.888Z,10.50
2018-10-01T17:06:14.107Z,10.40
2018-10-01T17:08:42.310Z,10.30
2018-10-01T17:11:10.587Z,10.50
2018-10-01T17:13:39.441Z,10.40
2018-10-01T17:16:07.707Z,10.40
2018-10-01T17:18:36.418Z,10.40
2018-10-01T17:21:04.643Z,10.40
2018-10-01T17:23:32.754Z,10.40
2018-10-01T17:26:01.085Z,10.40
2018-10-01T17:28:29.324Z,9.90
2018-10-01T17:30:57.608Z,10.40
2018-10-01T17:33:25.943Z,10.40
2018-10-01T17:35:54.265Z,10.40
2018-10-01T17:38:23.474Z,10.40
2018-10-01T17:40:51.858Z,10.40
2018-10-01T17:43:20.091Z,10.40
2018-10-01T17:45:48.397Z,10.40
2018-10-01T17:48:16.717Z,10.40
2018-10-01T17:50:44.936Z,10.40
2018-10-01T17:53:13.137Z,10.50
2018-10-01T17:55:41.440Z,10.50
2018-10-01T17:58:09.737Z,10.40
2018-10-01T18:00:38.085Z,10.30
2018-10-01T18:03:06.599Z,10.20
2018-10-01T18:05:34.853Z,10.20
2018-10-01T18:08:02.999Z,10.10
2018-10-01T18:10:31.169Z,9.90
2018-10-01T18:12:59.320Z,9.60
2018-10-01T18:15:27.505Z,9.50
2018-10-01T18:17:55.746Z,9.40
2018-10-01T18:20:23.926Z,9.30
2018-10-01T18:22:52.893Z,9.20
2018-10-01T18:25:21.073Z,9.20
2018-10-01T18:27:49.221Z,9.10
2018-10-01T18:30:17.473Z,9.10
2018-10-01T18:32:45.760Z,9.00
2018-10-01T18:35:14.012Z,9.00
2018-10-01T18:37:42.403Z,8.90
2018-10-01T18:40:12.829Z,9.00
2018-10-01T18:42:41.097Z,8.90
2018-10-01T18:45:09.289Z,8.90
2018-10-01T18:47:37.443Z,8.70
2018-10-01T18:50:05.822Z,9.00
2018-10-01T18:52:34.053Z,9.10
2018-10-01T18:55:02.146Z,9.20
2018-10-01T18:57:30.434Z,9.30
2018-10-01T18:59:59.726Z,9.40
2018-10-01T19:02:27.785Z,9.40
2018-10-01T19:04:56.005Z,9.30
2018-10-01T19:07:24.171Z,9.40
2018-10-01T19:09:53.207Z,9.30
2018-10-01T19:12:22.049Z,9.20
2018-10-01T19:14:50.105Z,8.40
2018-10-01T19:17:18.268Z,9.00
2018-10-01T19:19:46.474Z,8.90
2018-10-01T19:22:14.665Z,8.80
2018-10-01T19:24:42.746Z,8.70
2018-10-01T19:27:10.882Z,8.70
2018-10-01T19:29:39.067Z,8.60
2018-10-01T19:32:07.408Z,8.50
2018-10-01T19:34:35.502Z,8.40
2018-10-01T19:37:03.626Z,8.30
2018-10-01T19:39:31.733Z,8.20
2018-10-01T19:41:59.801Z,8.20
2018-10-01T19:44:28.034Z,8.20
2018-10-01T19:46:56.229Z,8.20
2018-10-01T19:49:24.341Z,8.10
2018-10-01T19:51:52.588Z,8.10
2018-10-01T19:54:20.841Z,8.00
2018-10-01T19:56:49.102Z,8.00
2018-10-01T19:59:17.342Z,7.90
2018-10-01T20:01:45.431Z,7.90
2018-10-01T20:04:13.648Z,7.80
2018-10-01T20:06:41.810Z,7.70
2018-10-01T20:09:11.455Z,7.60
2018-10-01T20:11:39.661Z,7.50
2018-10-01T20:14:07.841Z,7.50
2018-10-01T20:16:36.312Z,7.50
2018-10-01T20:19:04.537Z,7.40
2018-10-01T20:21:32.660Z,7.40
2018-10-01T20:24:00.760Z,7.40
2018-10-01T20:26:28.877Z,6.90
2018-10-01T20:28:57.236Z,7.30
2018-10-01T20:31:25.071Z,7.20
2018-10-01T20:33:53.390Z,7.20
2018-10-01T20:36:21.726Z,7.10
2018-10-01T20:38:49.736Z,7.10
2018-10-01T20:41:18.202Z,7.10
2018-10-01T20:43:47.086Z,7.10
2018-10-01T20:46:15.262Z,7.10
2018-10-01T20:48:43.522Z,7.10
2018-10-01T20:51:11.734Z,7.10
2018-10-01T20:53:39.951Z,7.20
2018-10-01T20:56:08.033Z,7.10
2018-10-01T20:58:36.167Z,6.70
2018-10-01T21:01:04.340Z,7.00
2018-10-01T21:03:32.510Z,6.90
2018-10-01T21:06:00.678Z,6.90
2018-10-01T21:08:28.868Z,6.90
2018-10-01T21:10:57.113Z,6.80
2018-10-01T21:13:25.347Z,6.80
2018-10-01T21:15:53.592Z,6.70
2018-10-01T21:18:21.805Z,6.70
2018-10-01T21:20:50.101Z,6.60
2018-10-01T21:23:18.325Z,6.70
2018-10-01T21:25:46.531Z,6.60
2018-10-01T21:28:14.564Z,6.60
2018-10-01T21:30:42.827Z,6.90
2018-10-01T21:33:10.951Z,6.50
2018-10-01T21:35:39.168Z,6.50
2018-10-01T21:38:07.313Z,6.40
2018-10-01T21:40:35.426Z,6.20
2018-10-01T21:43:03.554Z,6.50
2018-10-01T21:45:31.689Z,6.50
2018-10-01T21:47:59.883Z,6.50
2018-10-01T21:50:27.862Z,6.50
2018-10-01T21:52:56.114Z,6.50
2018-10-01T21:55:24.194Z,6.40
2018-10-01T21:57:52.367Z,6.50
2018-10-01T22:00:20.499Z,6.50
2018-10-01T22:02:48.561Z,6.60
2018-10-01T22:05:16.785Z,6.80
2018-10-01T22:07:44.982Z,6.90
2018-10-01T22:10:13.220Z,6.80
2018-10-01T22:12:41.339Z,6.80
2018-10-01T22:15:09.645Z,6.40
2018-10-01T22:17:38.333Z,6.90
2018-10-01T22:20:06.387Z,7.00
2018-10-01T22:22:35.315Z,7.00
2018-10-01T22:25:03.598Z,7.00
2018-10-01T22:27:31.869Z,6.80
2018-10-01T22:30:00.054Z,6.90
2018-10-01T22:32:28.156Z,6.80
2018-10-01T22:34:56.227Z,6.80
2018-10-01T22:37:24.352Z,7.00
2018-10-01T22:39:52.521Z,6.60
2018-10-01T22:42:20.569Z,6.60
2018-10-01T22:44:48.884Z,6.40
2018-10-01T22:47:16.986Z,6.40
2018-10-01T22:49:45.237Z,6.30
2018-10-01T22:52:13.346Z,6.30
2018-10-01T22:54:41.541Z,6.20
2018-10-01T22:57:09.667Z,6.10
2018-10-01T22:59:37.958Z,6.10
2018-10-01T23:02:06.133Z,6.00
2018-10-01T23:04:34.415Z,6.00
2018-10-01T23:07:02.668Z,5.90
2018-10-01T23:09:30.843Z,5.80
2018-10-01T23:11:59.183Z,5.80
2018-10-01T23:14:27.987Z,5.60
2018-10-01T23:16:56.256Z,5.90
2018-10-01T23:19:24.364Z,6.00
2018-10-01T23:21:52.463Z,6.10
2018-10-01T23:24:20.620Z,6.20
2018-10-01T23:26:48.879Z,6.20
2018-10-01T23:29:17.559Z,6.30
2018-10-01T23:31:45.868Z,6.30
2018-10-01T23:34:14.019Z,6.30
2018-10-01T23:36:42.255Z,6.30
2018-10-01T23:39:10.316Z,6.30
2018-10-01T23:41:38.368Z,6.30
2018-10-01T23:44:06.496Z,6.20
2018-10-01T23:46:34.652Z,6.20
2018-10-01T23:49:02.708Z,6.10
2018-10-01T23:51:30.757Z,6.00
2018-10-01T23:53:59.015Z,5.80
2018-10-01T23:56:27.220Z,5.70
2018-10-01T23:58:55.624Z,5.70
